createdAt,value
2022-09-12T00:01:28.663Z,10.83
2022-09-12T00:04:00.235Z,11.50
2022-09-12T00:06:31.083Z,11.83
2022-09-12T00:09:03.022Z,11.47
2022-09-12T00:11:31.249Z,11.17
2022-09-12T00:14:01.980Z,12.07
2022-09-12T00:16:33.150Z,11.63
2022-09-12T00:19:02.273Z,12.20
2022-09-12T00:21:31.150Z,12.00
2022-09-12T00:24:00.718Z,12.33
2022-09-12T00:26:28.839Z,12.97
2022-09-12T00:28:57.009Z,11.90
2022-09-12T00:31:27.674Z,11.90
2022-09-12T00:34:00.663Z,12.37
2022-09-12T00:36:32.359Z,10.67
2022-09-12T00:39:03.030Z,10.77
2022-09-12T00:41:34.287Z,11.97
2022-09-12T00:44:05.669Z,10.70
2022-09-12T00:46:39.855Z,11.93
2022-09-12T00:49:15.547Z,11.53
2022-09-12T00:51:56.642Z,12.00
2022-09-12T00:54:31.865Z,11.20
2022-09-12T00:57:05.870Z,12.50
2022-09-12T00:59:39.749Z,11.83
2022-09-12T01:02:08.745Z,12.00
2022-09-12T01:04:39.945Z,11.83
2022-09-12T01:07:09.859Z,12.73
2022-09-12T01:09:41.058Z,12.93
2022-09-12T01:12:09.944Z,13.63
2022-09-12T01:14:38.756Z,13.47
2022-09-12T01:17:06.968Z,14.23
2022-09-12T01:20:18.307Z,13.50
2022-09-12T01:23:11.067Z,13.53
2022-09-12T01:26:02.039Z,14.47
2022-09-12T01:29:00.780Z,14.50
2022-09-12T01:31:37.833Z,14.30
2022-09-12T01:34:18.424Z,15.10
2022-09-12T01:36:57.550Z,16.37
2022-09-12T01:39:34.143Z,16.63
2022-09-12T01:42:12.258Z,16.47
2022-09-12T01:44:49.537Z,15.97
2022-09-12T01:47:25.549Z,17.87
2022-09-12T01:50:02.082Z,16.33
2022-09-12T01:52:38.173Z,17.33
2022-09-12T01:55:12.894Z,17.07
2022-09-12T01:57:45.989Z,17.50
2022-09-12T02:00:15.422Z,18.30
2022-09-12T02:02:52.904Z,17.53
2022-09-12T02:05:27.714Z,18.37
2022-09-12T02:08:02.834Z,18.53
2022-09-12T02:10:35.517Z,18.73
2022-09-12T02:13:10.666Z,17.77
2022-09-12T02:15:43.143Z,19.63
2022-09-12T02:18:16.018Z,19.10
2022-09-12T02:20:49.013Z,20.20
2022-09-12T02:23:23.729Z,20.67
2022-09-12T02:25:56.233Z,21.73
2022-09-12T02:28:29.305Z,21.27
2022-09-12T02:31:07.165Z,23.83
2022-09-12T02:33:49.208Z,21.83
2022-09-12T02:36:30.867Z,21.57
2022-09-12T02:39:00.182Z,22.10
2022-09-12T02:41:28.451Z,23.77
2022-09-12T02:43:56.956Z,24.20
2022-09-12T02:46:30.779Z,23.57
2022-09-12T02:49:00.360Z,24.70
2022-09-12T02:51:28.913Z,23.83
2022-09-12T02:53:57.243Z,24.30
2022-09-12T02:56:28.831Z,25.17
2022-09-12T02:59:00.649Z,26.30
2022-09-12T03:01:51.195Z,26.80
2022-09-12T03:04:48.899Z,26.37
2022-09-12T03:07:31.526Z,25.83
2022-09-12T03:10:10.394Z,26.67
2022-09-12T03:12:49.622Z,27.07
2022-09-12T03:15:39.067Z,27.27
2022-09-12T03:18:21.434Z,26.23
2022-09-12T03:21:01.036Z,28.07
2022-09-12T03:23:38.040Z,28.27
2022-09-12T03:26:11.890Z,27.07
2022-09-12T03:28:41.672Z,24.17
2022-09-12T03:31:20.937Z,28.07
2022-09-12T03:33:49.173Z,26.30
2022-09-12T03:36:24.091Z,28.90
2022-09-12T03:38:52.485Z,31.07
2022-09-12T03:41:21.127Z,33.47
2022-09-12T03:43:49.672Z,33.93
2022-09-12T03:46:17.707Z,35.00
2022-09-12T03:48:45.917Z,33.83
2022-09-12T03:51:14.048Z,35.23
2022-09-12T03:53:43.535Z,35.80
2022-09-12T03:56:13.303Z,40.27
2022-09-12T03:58:42.568Z,41.60
2022-09-12T04:01:12.877Z,43.67
2022-09-12T04:03:41.626Z,42.23
2022-09-12T04:06:11.658Z,39.07
2022-09-12T04:08:40.282Z,36.00
2022-09-12T04:11:12.435Z,35.97
2022-09-12T04:13:42.480Z,35.33
2022-09-12T04:16:12.051Z,34.90
2022-09-12T04:18:40.371Z,33.90
2022-09-12T04:21:11.422Z,34.90
2022-09-12T04:23:39.496Z,33.50
2022-09-12T04:26:10.011Z,34.03
2022-09-12T04:28:39.487Z,35.03
2022-09-12T04:31:09.970Z,34.77
2022-09-12T04:33:38.273Z,35.67
2022-09-12T04:36:08.980Z,35.57
2022-09-12T04:38:38.364Z,35.13
2022-09-12T04:41:14.226Z,35.80
2022-09-12T04:43:42.574Z,35.27
2022-09-12T04:46:12.604Z,36.70
2022-09-12T04:48:40.876Z,35.23
2022-09-12T04:51:11.141Z,36.70
2022-09-12T04:53:39.651Z,34.60
2022-09-12T04:56:10.936Z,35.27
2022-09-12T04:58:40.385Z,35.07
2022-09-12T05:01:10.727Z,34.57
2022-09-12T05:03:39.594Z,32.33
2022-09-12T05:06:09.724Z,35.10
2022-09-12T05:08:38.278Z,35.93
2022-09-12T05:11:08.147Z,33.03
2022-09-12T05:13:36.833Z,32.73
2022-09-12T05:16:08.787Z,33.70
2022-09-12T05:18:38.276Z,33.67
2022-09-12T05:21:09.291Z,36.60
2022-09-12T05:23:37.855Z,37.00
2022-09-12T05:26:08.430Z,36.57
2022-09-12T05:28:40.236Z,37.20
2022-09-12T05:31:12.779Z,38.43
2022-09-12T05:33:44.942Z,39.87
2022-09-12T05:36:18.204Z,39.73
2022-09-12T05:38:47.306Z,42.30
2022-09-12T05:41:20.846Z,41.83
2022-09-12T05:43:54.580Z,43.60
2022-09-12T05:46:26.824Z,42.63
2022-09-12T05:48:56.876Z,42.77
2022-09-12T05:51:28.143Z,41.73
2022-09-12T05:53:59.216Z,40.53
2022-09-12T05:56:29.726Z,42.83
2022-09-12T05:59:00.015Z,42.77
2022-09-12T06:01:31.310Z,43.67
2022-09-12T06:04:01.813Z,41.17
2022-09-12T06:06:32.246Z,39.67
2022-09-12T06:09:02.945Z,37.53
2022-09-12T06:11:33.229Z,37.03
2022-09-12T06:14:02.676Z,34.40
2022-09-12T06:16:34.969Z,37.20
2022-09-12T06:19:06.620Z,36.30
2022-09-12T06:21:35.518Z,35.60
2022-09-12T06:24:03.947Z,36.30
2022-09-12T06:26:32.299Z,35.87
2022-09-12T06:29:02.199Z,34.77
2022-09-12T06:31:34.939Z,35.47
2022-09-12T06:34:06.216Z,35.87
2022-09-12T06:36:38.244Z,34.57
2022-09-12T06:39:09.745Z,33.40
2022-09-12T06:41:42.990Z,33.00
2022-09-12T06:44:15.530Z,34.13
2022-09-12T06:46:45.230Z,33.30
2022-09-12T06:49:14.160Z,31.73
2022-09-12T06:51:43.065Z,32.87
2022-09-12T06:54:18.258Z,32.13
2022-09-12T06:56:46.447Z,31.60
2022-09-12T06:59:14.716Z,33.03
2022-09-12T07:01:44.297Z,32.67
2022-09-12T07:04:12.864Z,33.27
2022-09-12T07:06:44.557Z,31.63
2022-09-12T07:09:16.273Z,32.20
2022-09-12T07:11:46.252Z,34.13
2022-09-12T07:14:15.731Z,34.13
2022-09-12T07:16:45.425Z,33.37
2022-09-12T07:19:13.580Z,32.73
2022-09-12T07:21:42.152Z,34.43
2022-09-12T07:24:11.488Z,33.27
2022-09-12T07:26:42.206Z,32.67
2022-09-12T07:32:07.578Z,33.30
2022-09-12T07:34:36.441Z,33.90
2022-09-12T07:37:04.680Z,32.97
2022-09-12T07:39:32.818Z,32.30
2022-09-12T07:42:01.441Z,32.43
2022-09-12T07:44:29.562Z,33.80
2022-09-12T07:46:57.677Z,32.50
2022-09-12T07:49:27.762Z,31.60
2022-09-12T07:51:55.833Z,32.50
2022-09-12T07:54:24.260Z,33.50
2022-09-12T07:56:52.483Z,32.47
2022-09-12T07:59:35.659Z,30.97
2022-09-12T08:02:17.174Z,30.50
2022-09-12T08:04:48.479Z,29.83
2022-09-12T08:07:18.247Z,28.57
2022-09-12T08:09:46.426Z,27.10
2022-09-12T08:12:15.110Z,26.80
2022-09-12T08:14:43.199Z,25.33
2022-09-12T08:17:11.298Z,24.33
2022-09-12T08:19:39.427Z,25.03
2022-09-12T08:22:09.787Z,23.20
2022-09-12T08:24:39.135Z,24.93
2022-09-12T08:27:07.558Z,23.53
2022-09-12T08:29:35.639Z,23.87
2022-09-12T08:32:04.666Z,24.30
2022-09-12T08:34:32.762Z,22.83
2022-09-12T08:37:00.939Z,22.57
2022-09-12T08:39:32.656Z,21.67
2022-09-12T08:42:04.033Z,22.20
2022-09-12T08:45:17.502Z,20.90
2022-09-12T08:47:48.219Z,20.43
2022-09-12T08:50:21.131Z,20.73
2022-09-12T08:52:58.478Z,21.53
2022-09-12T08:55:35.039Z,19.63
2022-09-12T08:58:12.063Z,19.67
2022-09-12T09:00:55.076Z,18.47
2022-09-12T09:04:20.577Z,18.57
2022-09-12T09:07:34.530Z,18.40
2022-09-12T09:10:19.474Z,16.67
2022-09-12T09:13:00.796Z,15.93
2022-09-12T09:15:51.410Z,15.27
2022-09-12T09:18:24.600Z,14.87
2022-09-12T09:20:57.600Z,15.00
2022-09-12T09:23:30.814Z,14.57
2022-09-12T09:26:07.172Z,15.60
2022-09-12T09:28:43.477Z,15.00
2022-09-12T09:31:17.140Z,14.60
2022-09-12T09:33:49.275Z,15.37
2022-09-12T09:36:23.932Z,14.60
2022-09-12T09:39:00.955Z,15.43
2022-09-12T09:41:48.301Z,15.63
2022-09-12T09:44:18.179Z,15.67
2022-09-12T09:46:46.329Z,15.10
2022-09-12T09:49:15.500Z,16.13
2022-09-12T09:51:44.360Z,17.67
2022-09-12T09:54:21.320Z,17.60
2022-09-12T09:56:49.475Z,17.03
2022-09-12T09:59:21.780Z,18.33
2022-09-12T10:01:54.830Z,17.93
2022-09-12T10:04:26.011Z,18.73
2022-09-12T10:06:55.873Z,19.07
2022-09-12T10:09:27.158Z,19.57
2022-09-12T10:11:57.576Z,20.00
2022-09-12T10:14:37.679Z,24.13
2022-09-12T10:17:28.684Z,22.23
2022-09-12T10:20:19.907Z,22.00
2022-09-12T10:22:49.676Z,21.60
2022-09-12T10:25:20.146Z,22.93
2022-09-12T10:27:57.757Z,22.60
2022-09-12T10:30:29.617Z,22.93
2022-09-12T10:33:08.449Z,22.60
2022-09-12T10:35:47.276Z,22.30
2022-09-12T10:38:23.400Z,22.33
2022-09-12T10:40:59.796Z,21.87
2022-09-12T10:43:31.315Z,22.37
2022-09-12T10:46:21.986Z,20.90
2022-09-12T10:48:52.717Z,20.37
2022-09-12T10:51:29.854Z,21.70
2022-09-12T10:54:00.971Z,22.07
2022-09-12T10:56:34.945Z,21.07
2022-09-12T10:59:22.662Z,20.07
2022-09-12T11:02:01.271Z,19.52
2022-09-12T11:04:44.691Z,19.57
2022-09-12T11:07:43.458Z,20.20
2022-09-12T11:10:27.120Z,18.80
2022-09-12T11:13:11.644Z,18.38
2022-09-12T11:16:02.713Z,19.23
2022-09-12T11:18:54.308Z,17.85
2022-09-12T11:21:40.215Z,17.70
2022-09-12T11:24:29.277Z,16.83
2022-09-12T11:27:22.425Z,15.57
2022-09-12T11:29:52.483Z,16.15
2022-09-12T11:32:44.621Z,16.05
2022-09-12T11:35:24.434Z,16.63
2022-09-12T11:38:23.440Z,15.02
2022-09-12T11:40:58.135Z,13.13
2022-09-12T11:43:41.330Z,11.55
2022-09-12T11:46:19.317Z,10.57
2022-09-12T11:48:56.869Z,11.98
2022-09-12T11:51:30.976Z,11.57
2022-09-12T11:54:13.956Z,11.77
2022-09-12T11:56:47.299Z,10.50
2022-09-12T11:59:32.732Z,12.13
2022-09-12T12:02:01.937Z,11.95
2022-09-12T12:04:39.350Z,12.25
2022-09-12T12:07:12.421Z,12.20
2022-09-12T12:09:51.349Z,12.18
2022-09-12T12:12:25.676Z,12.55
2022-09-12T12:14:55.939Z,11.10
2022-09-12T12:17:26.985Z,11.68
2022-09-12T12:20:07.413Z,12.10
2022-09-12T12:22:37.361Z,12.07
2022-09-12T12:25:39.974Z,11.75
2022-09-12T12:28:08.380Z,10.80
2022-09-12T12:31:04.343Z,11.07
2022-09-12T12:34:23.507Z,9.68
2022-09-12T12:36:51.630Z,10.60
2022-09-12T12:40:05.800Z,11.75
2022-09-12T12:43:32.930Z,10.40
2022-09-12T12:46:09.284Z,9.52
2022-09-12T12:49:10.750Z,9.20
2022-09-12T12:52:06.036Z,8.20
2022-09-12T12:54:54.736Z,9.88
2022-09-12T12:57:47.425Z,11.05
2022-09-12T13:00:32.264Z,12.18
2022-09-12T13:03:04.273Z,9.88
2022-09-12T13:05:40.966Z,8.55
2022-09-12T13:08:12.180Z,9.18
2022-09-12T13:10:50.172Z,9.13
2022-09-12T13:13:27.294Z,9.07
2022-09-12T13:15:55.727Z,9.45
2022-09-12T13:18:28.646Z,7.15
2022-09-12T13:21:09.014Z,6.57
2022-09-12T13:23:37.568Z,6.97
2022-09-12T13:26:14.001Z,8.18
2022-09-12T13:28:43.469Z,7.82
2022-09-12T13:31:19.107Z,9.75
2022-09-12T13:33:50.954Z,9.20
2022-09-12T13:36:48.236Z,9.90
2022-09-12T13:39:21.528Z,10.25
2022-09-12T13:42:41.612Z,9.45
2022-09-12T13:45:16.859Z,8.05
2022-09-12T13:47:47.378Z,7.47
2022-09-12T13:50:21.293Z,6.70
2022-09-12T13:52:54.015Z,8.35
2022-09-12T13:55:31.475Z,8.02
2022-09-12T13:58:02.744Z,7.53
2022-09-12T14:00:34.939Z,7.68
2022-09-12T14:03:20.995Z,7.35
2022-09-12T14:05:57.557Z,8.82
2022-09-12T14:08:26.929Z,8.90
2022-09-12T14:10:55.413Z,8.75
2022-09-12T14:13:26.748Z,9.77
2022-09-12T14:15:59.825Z,9.90
2022-09-12T14:18:31.130Z,9.20
2022-09-12T14:21:10.494Z,8.15
2022-09-12T14:23:42.548Z,9.20
2022-09-12T14:26:13.847Z,8.63
2022-09-12T14:28:44.840Z,9.93
2022-09-12T14:31:25.470Z,10.90
2022-09-12T14:33:56.006Z,10.57
2022-09-12T14:36:26.550Z,10.15
2022-09-12T14:38:57.855Z,9.77
2022-09-12T14:41:30.754Z,9.82
2022-09-12T14:44:02.760Z,9.40
2022-09-12T14:46:36.110Z,8.73
2022-09-12T14:49:11.298Z,6.97
2022-09-12T14:51:42.010Z,6.68
2022-09-12T14:54:39.431Z,6.60
2022-09-12T14:57:33.307Z,6.30
2022-09-12T15:00:26.029Z,5.00
2022-09-12T15:02:56.224Z,4.65
2022-09-12T15:05:29.478Z,5.35
2022-09-12T15:08:01.406Z,4.80
2022-09-12T15:10:33.825Z,4.82
2022-09-12T15:13:17.312Z,4.85
2022-09-12T15:15:48.197Z,4.72
2022-09-12T15:18:18.769Z,5.60
2022-09-12T15:20:49.301Z,5.47
2022-09-12T15:23:30.996Z,5.18
2022-09-12T15:25:59.134Z,5.25
2022-09-12T15:28:27.853Z,4.97
2022-09-12T15:30:58.347Z,5.45
2022-09-12T15:33:27.841Z,5.05
2022-09-12T15:35:56.014Z,5.30
2022-09-12T15:38:26.581Z,5.90
2022-09-12T15:40:55.722Z,5.90
2022-09-12T15:43:26.293Z,5.68
2022-09-12T15:45:54.534Z,6.00
2022-09-12T15:48:27.306Z,5.90
2022-09-12T15:50:57.595Z,5.85
2022-09-12T15:53:26.115Z,5.80
2022-09-12T15:55:54.170Z,5.43
2022-09-12T15:58:22.213Z,5.15
2022-09-12T16:00:50.498Z,5.65
2022-09-12T16:03:24.811Z,5.28
2022-09-12T16:05:58.140Z,5.57
2022-09-12T16:08:26.931Z,4.93
2022-09-12T16:10:58.439Z,5.47
2022-09-12T16:13:29.285Z,5.15
2022-09-12T16:15:59.246Z,4.80
2022-09-12T16:18:27.805Z,5.03
2022-09-12T16:20:58.325Z,4.63
2022-09-12T16:23:26.414Z,4.32
2022-09-12T16:26:02.140Z,4.90
2022-09-12T16:28:30.735Z,4.20
2022-09-12T16:31:00.387Z,3.90
2022-09-12T16:33:29.617Z,4.10
2022-09-12T16:36:04.370Z,3.80
2022-09-12T16:38:33.709Z,4.10
2022-09-12T16:41:02.535Z,4.10
2022-09-12T16:43:31.962Z,4.10
2022-09-12T16:46:04.481Z,4.00
2022-09-12T16:48:33.672Z,3.97
2022-09-12T16:51:06.867Z,3.95
2022-09-12T16:53:36.930Z,3.97
2022-09-12T16:56:05.744Z,3.90
2022-09-12T16:58:38.482Z,3.97
2022-09-12T17:01:11.521Z,4.10
2022-09-12T17:03:40.300Z,4.25
2022-09-12T17:06:13.906Z,4.20
2022-09-12T17:08:44.497Z,3.95
2022-09-12T17:11:15.586Z,4.63
2022-09-12T17:14:03.907Z,4.40
2022-09-12T17:16:35.431Z,4.13
2022-09-12T17:19:04.355Z,4.22
2022-09-12T17:21:35.095Z,4.47
2022-09-12T17:24:03.714Z,4.20
2022-09-12T17:26:31.890Z,4.90
2022-09-12T17:29:03.195Z,4.70
2022-09-12T17:31:31.446Z,4.80
2022-09-12T17:34:00.760Z,4.70
2022-09-12T17:36:31.865Z,5.15
2022-09-12T17:39:02.820Z,4.47
2022-09-12T17:41:32.793Z,4.75
2022-09-12T17:44:03.529Z,4.75
2022-09-12T17:46:34.979Z,4.85
2022-09-12T17:49:05.251Z,4.95
2022-09-12T17:51:33.881Z,4.75
2022-09-12T17:54:07.226Z,4.65
2022-09-12T17:56:37.202Z,5.10
2022-09-12T17:59:07.317Z,4.82
2022-09-12T18:01:52.989Z,5.70
2022-09-12T18:04:21.292Z,5.03
2022-09-12T18:06:50.146Z,5.35
2022-09-12T18:09:23.249Z,4.85
2022-09-12T18:11:52.587Z,4.60
2022-09-12T18:14:21.117Z,5.20
2022-09-12T18:16:49.790Z,4.90
2022-09-12T18:19:18.717Z,5.53
2022-09-12T18:21:47.429Z,5.50
2022-09-12T18:24:15.982Z,4.97
2022-09-12T18:26:45.394Z,5.60
2022-09-12T18:29:16.795Z,5.20
2022-09-12T18:31:46.661Z,5.47
2022-09-12T18:34:15.223Z,5.27
2022-09-12T18:36:45.796Z,5.50
2022-09-12T18:39:14.095Z,5.40
2022-09-12T18:41:42.549Z,5.17
2022-09-12T18:44:13.169Z,5.23
2022-09-12T18:46:41.459Z,4.90
2022-09-12T18:49:10.629Z,4.97
2022-09-12T18:51:41.630Z,5.90
2022-09-12T18:54:14.441Z,5.90
2022-09-12T18:56:43.962Z,5.50
2022-09-12T18:59:14.861Z,5.50
2022-09-12T19:01:44.090Z,5.60
2022-09-12T19:04:13.766Z,5.63
2022-09-12T19:06:43.485Z,5.37
2022-09-12T19:09:13.989Z,5.20
2022-09-12T19:11:48.859Z,6.00
2022-09-12T19:14:20.560Z,5.83
2022-09-12T19:16:50.725Z,5.80
2022-09-12T19:19:19.198Z,5.50
2022-09-12T19:21:47.824Z,5.53
2022-09-12T19:24:17.038Z,5.70
2022-09-12T19:26:45.310Z,5.57
2022-09-12T19:29:14.664Z,5.67
2022-09-12T19:31:45.935Z,6.00
2022-09-12T19:34:15.329Z,5.93
2022-09-12T19:36:46.289Z,6.07
2022-09-12T19:39:16.192Z,6.17
2022-09-12T19:41:44.995Z,5.90
2022-09-12T19:44:14.119Z,5.77
2022-09-12T19:46:43.668Z,6.00
2022-09-12T19:49:13.352Z,6.03
2022-09-12T19:51:41.783Z,6.13
2022-09-12T19:54:10.486Z,6.23
2022-09-12T19:56:38.613Z,6.00
2022-09-12T19:59:06.704Z,6.20
2022-09-12T20:01:36.896Z,6.43
2022-09-12T20:04:07.550Z,7.00
2022-09-12T20:06:36.700Z,6.90
2022-09-12T20:09:05.339Z,7.37
2022-09-12T20:11:33.745Z,6.63
2022-09-12T20:14:01.992Z,6.70
2022-09-12T20:16:31.100Z,6.90
2022-09-12T20:19:01.694Z,6.23
2022-09-12T20:21:34.097Z,6.80
2022-09-12T20:24:04.726Z,6.83
2022-09-12T20:26:33.097Z,6.50
2022-09-12T20:29:01.662Z,6.70
2022-09-12T20:31:30.462Z,7.13
2022-09-12T20:33:58.873Z,7.37
2022-09-12T20:36:27.450Z,7.40
2022-09-12T20:38:59.906Z,7.30
2022-09-12T20:41:30.304Z,7.77
2022-09-12T20:43:59.209Z,8.13
2022-09-12T20:46:29.182Z,8.37
2022-09-12T20:48:59.405Z,8.80
2022-09-12T20:51:29.657Z,8.77
2022-09-12T20:54:01.044Z,9.43
2022-09-12T20:56:31.703Z,10.50
2022-09-12T20:59:00.987Z,10.43
2022-09-12T21:01:31.280Z,9.97
2022-09-12T21:04:01.393Z,10.33
2022-09-12T21:06:29.679Z,10.67
2022-09-12T21:09:00.509Z,10.03
2022-09-12T21:11:29.611Z,10.50
2022-09-12T21:13:58.414Z,10.73
2022-09-12T21:16:27.304Z,10.53
2022-09-12T21:18:57.465Z,10.43
2022-09-12T21:21:26.490Z,11.27
2022-09-12T21:23:55.320Z,10.90
2022-09-12T21:26:24.744Z,11.03
2022-09-12T21:28:52.815Z,10.73
2022-09-12T21:31:21.187Z,10.00
2022-09-12T21:33:49.422Z,10.53
2022-09-12T21:36:17.602Z,11.97
2022-09-12T21:38:45.706Z,11.90
2022-09-12T21:41:15.729Z,10.13
2022-09-12T21:43:45.469Z,10.30
2022-09-12T21:46:13.815Z,11.13
2022-09-12T21:48:43.990Z,10.67
2022-09-12T21:51:12.141Z,11.57
2022-09-12T21:53:40.448Z,10.97
2022-09-12T21:56:10.428Z,12.13
2022-09-12T21:58:39.263Z,12.30
2022-09-12T22:01:12.338Z,11.20
2022-09-12T22:03:42.995Z,12.10
2022-09-12T22:06:11.121Z,11.07
2022-09-12T22:08:40.463Z,12.57
2022-09-12T22:11:10.391Z,11.90
2022-09-12T22:13:40.051Z,11.80
2022-09-12T22:16:10.389Z,13.17
2022-09-12T22:18:39.492Z,12.90
2022-09-12T22:21:12.283Z,13.10
2022-09-12T22:23:57.987Z,12.63
2022-09-12T22:26:27.011Z,13.93
2022-09-12T22:28:55.356Z,13.60
2022-09-12T22:31:26.912Z,14.33
2022-09-12T22:33:57.368Z,14.43
2022-09-12T22:36:30.432Z,14.87
2022-09-12T22:38:59.683Z,14.67
2022-09-12T22:41:28.384Z,15.03
2022-09-12T22:43:57.516Z,14.57
2022-09-12T22:46:27.488Z,16.07
2022-09-12T22:48:55.946Z,16.27
2022-09-12T22:51:24.025Z,16.33
2022-09-12T22:53:52.497Z,15.17
2022-09-12T22:56:20.557Z,14.20
2022-09-12T22:58:48.714Z,15.50
2022-09-12T23:01:16.888Z,13.93
2022-09-12T23:03:46.520Z,14.77
2022-09-12T23:06:14.680Z,14.83
2022-09-12T23:08:42.815Z,15.77
2022-09-12T23:11:14.573Z,14.83
2022-09-12T23:13:47.305Z,16.00
2022-09-12T23:16:19.902Z,15.40
2022-09-12T23:18:49.823Z,16.33
2022-09-12T23:21:20.763Z,15.97
2022-09-12T23:23:49.010Z,16.67
2022-09-12T23:26:19.278Z,17.50
2022-09-12T23:28:51.100Z,18.63
2022-09-12T23:31:19.504Z,18.63
2022-09-12T23:33:50.115Z,18.20
2022-09-12T23:36:18.154Z,18.93
2022-09-12T23:38:47.997Z,18.73
2022-09-12T23:41:17.950Z,19.73
2022-09-12T23:43:47.009Z,19.00
2022-09-12T23:46:17.086Z,18.87
2022-09-12T23:48:45.918Z,20.70
2022-09-12T23:51:15.939Z,19.47
2022-09-12T23:53:44.130Z,19.17
2022-09-12T23:56:12.573Z,19.13
2022-09-12T23:58:40.618Z,20.80
